Terminal Aerodrome Forecast
Issued by NWS

Home | Current Version | Previous Version | Text Only | Print | Product List | Glossary On
Versions: 1 2 3 4 5 6 7 8 9 10 11 12 13 14 15
234
FTUS45 KABQ 260544
TAFGUP
TAF
KGUP 260544Z 2606/2706 06005KT P6SM SCT070 BKN120
      TEMPO 2607/2610 VRB09G17KT -SHRA SCT040 BKN070
     FM261200 VRB06KT P6SM SCT100 SCT150
     FM261930 25009G16KT P6SM SCT100 SCT150
     FM262100 26009G16KT P6SM VCSH SCT090 BKN120 PROB30 2621/2702
      VRB18G28KT -TSRA BKN060CB BKN110=

USA.gov is the U.S. government's official web portal to all federal, state and local government web resources and services.